Time;durP1;ratioP1;P1;durP2;ratioP2;P2;SDS_P1;SDS_P2;PMS_P1;PMS_P2;Temp;Humidity;BMP_temperature;BMP_pressure;BME280_temperature;BME280_humidity;BME280_pressure;Samples;Min_cycle;Max_cycle;Signal;HPM_P1;HPM_P2
2023/10/04 00:00:55;;;;;;;;;4.00;1.00;;;;;15.13;65.15;102280.16;5083189;27;45329;-85
2023/10/04 00:03:22;;;;;;;;;1.00;1.00;;;;;15.11;65.22;102271.31;5084656;27;45563;-87
2023/10/04 00:05:48;;;;;;;;;3.00;1.00;;;;;15.07;65.12;102267.91;5082880;28;46159;-86
2023/10/04 00:08:13;;;;;;;;;4.00;1.00;;;;;14.94;65.42;102251.53;5081006;28;45807;-82
2023/10/04 00:10:39;;;;;;;;;1.00;1.00;;;;;14.94;65.31;102246.19;5082174;28;45202;-89
2023/10/04 00:13:05;;;;;;;;;0.67;0.67;;;;;15.04;65.51;102262.69;5082630;28;45489;-86
2023/10/04 00:15:31;;;;;;;;;2.00;1.00;;;;;14.99;65.72;102262.06;5081278;28;45328;-87
2023/10/04 00:17:57;;;;;;;;;1.00;1.00;;;;;14.92;65.78;102249.88;5082022;28;45336;-85
2023/10/04 00:20:32;;;;;;;;;1.00;1.00;;;;;14.88;65.46;102245.63;5082910;27;45420;-84
2023/10/04 00:22:57;;;;;;;;;2.00;2.00;;;;;14.63;65.71;102209.28;5081965;27;45365;-84
2023/10/04 00:25:23;;;;;;;;;2.00;0.67;;;;;14.91;65.37;102261.53;5081834;27;46149;-87
2023/10/04 00:27:58;;;;;;;;;1.00;1.00;;;;;14.58;65.52;102200.59;5081693;28;45432;-85
2023/10/04 00:30:28;;;;;;;;;3.00;3.00;;;;;14.94;65.72;102251.53;5080871;28;45376;-87
2023/10/04 00:32:54;;;;;;;;;2.00;2.00;;;;;14.89;65.63;102252.72;5081088;27;45234;-86
2023/10/04 00:35:21;;;;;;;;;1.00;1.00;;;;;14.80;66.01;102261.19;5079603;28;46296;-87
2023/10/04 00:37:56;;;;;;;;;1.00;1.00;;;;;14.65;66.89;102250.25;5081260;27;45334;-87
2023/10/04 00:40:32;;;;;;;;;0.00;0.00;;;;;14.53;67.03;102233.88;5085172;27;45376;-86
2023/10/04 00:43:01;;;;;;;;;1.67;1.33;;;;;14.65;67.26;102255.59;5087339;27;45435;-88
2023/10/04 00:45:31;;;;;;;;;1.33;1.00;;;;;14.63;66.97;102257.50;5086166;27;46152;-87
2023/10/04 00:47:57;;;;;;;;;1.33;0.00;;;;;14.61;67.12;102269.22;5102629;27;44704;-85
2023/10/04 00:50:26;;;;;;;;;1.33;0.00;;;;;14.40;67.28;102234.41;5099316;28;45408;-88
2023/10/04 00:53:14;;;;;;;;;1.33;0.33;;;;;14.58;66.82;102254.13;5087954;27;45386;-87
2023/10/04 00:55:42;;;;;;;;;1.00;1.00;;;;;14.55;67.78;102251.63;5085845;27;47407;-87
2023/10/04 00:58:10;;;;;;;;;1.00;1.00;;;;;14.42;67.18;102237.03;5079568;28;45445;-86
2023/10/04 01:00:36;;;;;;;;;7.67;1.33;;;;;14.34;68.29;102237.41;5079209;28;45262;-87
2023/10/04 01:03:03;;;;;;;;;1.00;1.00;;;;;14.20;68.13;102222.91;5075230;28;45361;-89
2023/10/04 01:05:29;;;;;;;;;2.33;1.00;;;;;14.18;68.49;102221.13;5070103;27;45337;-86
2023/10/04 01:07:55;;;;;;;;;1.67;1.00;;;;;14.23;68.48;102241.50;5077752;27;45318;-87
2023/10/04 01:10:24;;;;;;;;;0.00;0.00;;;;;14.14;68.82;102232.06;5079722;27;45389;-89
2023/10/04 01:12:51;;;;;;;;;4.00;1.00;;;;;14.17;68.76;102237.25;5094042;27;45496;-88
2023/10/04 01:17:51;;;;;;;;;3.00;2.00;;;;;14.21;68.64;102264.78;5079386;27;45408;-86
2023/10/04 01:20:17;;;;;;;;;1.00;0.67;;;;;14.04;68.91;102241.44;5077898;28;45438;-84
2023/10/04 01:22:42;;;;;;;;;1.00;1.00;;;;;14.20;69.37;102277.28;5080733;27;45316;-86
2023/10/04 01:25:11;;;;;;;;;0.00;0.00;;;;;14.01;69.71;102247.78;5079965;28;46996;-87
2023/10/04 01:27:38;;;;;;;;;2.00;2.00;;;;;14.08;69.26;102270.66;5081836;27;45353;-89
2023/10/04 01:30:05;;;;;;;;;3.33;2.00;;;;;14.09;69.95;102272.41;5082672;27;45381;-84
2023/10/04 01:32:31;;;;;;;;;5.00;3.33;;;;;13.99;69.30;102251.47;5085040;27;45736;-85
2023/10/04 01:34:56;;;;;;;;;1.00;1.00;;;;;14.14;69.10;102264.16;5083991;28;45253;-87
2023/10/04 01:37:22;;;;;;;;;1.00;1.00;;;;;13.95;69.21;102233.84;5081652;27;45451;-87
2023/10/04 01:39:47;;;;;;;;;1.00;1.00;;;;;13.99;69.47;102233.63;5080757;28;45405;-87
2023/10/04 01:42:12;;;;;;;;;1.67;1.67;;;;;13.99;69.43;102227.41;5077718;28;54831;-89
2023/10/04 01:44:38;;;;;;;;;2.00;2.00;;;;;14.15;69.19;102242.69;5079486;27;45422;-85
2023/10/04 01:47:04;;;;;;;;;7.67;1.00;;;;;13.95;69.18;102213.31;5079870;27;45234;-85
2023/10/04 01:49:32;;;;;;;;;3.67;3.00;;;;;14.16;69.05;102243.56;5078250;28;45455;-87
2023/10/04 01:51:58;;;;;;;;;2.33;1.00;;;;;14.15;69.08;102221.28;5079664;28;45433;-88
2023/10/04 01:54:23;;;;;;;;;2.00;2.00;;;;;14.31;69.02;102236.63;5080660;28;54201;-87
2023/10/04 01:56:48;;;;;;;;;5.67;2.00;;;;;14.33;69.02;102232.13;5079672;28;48572;-85
2023/10/04 01:59:14;;;;;;;;;1.00;1.00;;;;;14.35;68.65;102232.91;5080785;28;57416;-88
2023/10/04 02:01:40;;;;;;;;;3.67;1.00;;;;;14.25;69.02;102221.75;5078387;28;45311;-87
2023/10/04 02:04:06;;;;;;;;;2.33;1.00;;;;;14.23;68.63;102212.06;5079191;28;46194;-87
2023/10/04 02:06:33;;;;;;;;;4.00;2.00;;;;;14.32;68.74;102230.34;5078948;28;45206;-88
2023/10/04 02:09:00;;;;;;;;;2.00;2.00;;;;;14.03;68.33;102186.19;5078799;27;45451;-88
2023/10/04 02:11:26;;;;;;;;;3.67;1.00;;;;;14.22;69.20;102213.88;5077124;28;45646;-85
2023/10/04 02:13:52;;;;;;;;;2.00;2.00;;;;;14.14;69.69;102214.19;5093611;27;48638;-86
2023/10/04 02:16:21;;;;;;;;;1.33;1.33;;;;;14.20;69.71;102234.47;5078062;27;44769;-87
2023/10/04 02:18:51;;;;;;;;;2.33;1.00;;;;;14.13;69.48;102220.50;5081351;28;45458;-89
2023/10/04 02:21:17;;;;;;;;;2.00;2.00;;;;;14.18;69.54;102229.16;5081801;28;45416;-86
2023/10/04 02:23:43;;;;;;;;;0.00;0.00;;;;;14.20;69.52;102231.81;5081928;28;45482;-87
2023/10/04 02:26:09;;;;;;;;;2.00;2.00;;;;;14.05;69.77;102214.59;5081412;28;45351;-87
2023/10/04 02:28:35;;;;;;;;;3.00;1.33;;;;;14.17;69.68;102230.09;5081075;27;45351;-87
2023/10/04 02:31:02;;;;;;;;;2.00;2.00;;;;;14.06;69.92;102205.66;5079935;28;45192;-88
2023/10/04 02:33:33;;;;;;;;;3.67;1.00;;;;;14.15;69.85;102217.75;5081108;27;45322;-87
2023/10/04 02:36:00;;;;;;;;;2.00;2.00;;;;;14.12;70.32;102216.09;5081569;27;45311;-87
2023/10/04 02:38:26;;;;;;;;;2.33;1.00;;;;;14.09;69.85;102202.84;5082597;27;45325;-88
2023/10/04 02:40:53;;;;;;;;;3.00;3.00;;;;;14.11;69.66;102200.09;5082667;27;45426;-86
2023/10/04 02:43:20;;;;;;;;;2.00;0.00;;;;;14.08;69.86;102209.13;5082486;27;46154;-88
2023/10/04 02:45:47;;;;;;;;;7.33;5.67;;;;;14.11;69.92;102213.47;5081593;28;45359;-88
2023/10/04 02:48:13;;;;;;;;;7.33;6.00;;;;;14.14;69.34;102221.34;5084492;27;45400;-86
2023/10/04 02:50:41;;;;;;;;;5.33;5.33;;;;;14.12;70.32;102231.25;5082800;28;45534;-89
2023/10/04 02:53:12;;;;;;;;;2.00;1.67;;;;;13.87;70.47;102197.56;5098380;27;47223;-87
2023/10/04 02:55:38;;;;;;;;;3.00;3.00;;;;;14.00;69.82;102232.69;5084258;28;45346;-85
2023/10/04 02:58:07;;;;;;;;;6.67;4.00;;;;;14.05;70.61;102233.31;5084665;27;45247;-86
2023/10/04 03:00:36;;;;;;;;;9.33;6.00;;;;;14.05;70.01;102240.50;5081960;28;45248;-86
2023/10/04 03:03:02;;;;;;;;;6.33;6.33;;;;;13.73;70.50;102177.75;5081309;28;46960;-84
2023/10/04 03:05:32;;;;;;;;;5.33;4.33;;;;;13.97;70.81;102235.50;5080172;28;45386;-89
2023/10/04 03:08:06;;;;;;;;;26.75;22.00;;;;;14.03;70.29;102245.91;5081026;27;45441;-87
2023/10/04 03:10:33;;;;;;;;;1.67;1.67;;;;;14.02;70.99;102248.66;5080108;28;45370;-86
2023/10/04 03:13:01;;;;;;;;;4.00;2.00;;;;;13.90;70.95;102247.38;5081099;27;46297;-86
2023/10/04 03:15:28;;;;;;;;;4.33;3.67;;;;;13.70;71.08;102234.91;5081201;28;45461;-86
2023/10/04 03:17:55;;;;;;;;;6.33;2.67;;;;;13.63;71.70;102221.84;5081331;27;45511;-84
2023/10/04 03:20:29;;;;;;;;;4.67;1.00;;;;;13.66;71.68;102232.41;5079466;28;45372;-87
2023/10/04 03:23:06;;;;;;;;;3.00;1.00;;;;;13.23;72.39;102181.63;5081156;28;45430;-84
2023/10/04 03:25:31;;;;;;;;;3.00;1.00;;;;;13.48;71.74;102216.22;5081286;28;45199;-86
2023/10/04 03:27:57;;;;;;;;;4.67;1.33;;;;;13.56;72.40;102240.81;5081847;28;45692;-88
2023/10/04 03:30:22;;;;;;;;;3.33;2.33;;;;;13.65;72.39;102254.72;5081151;27;45311;-86
2023/10/04 03:32:52;;;;;;;;;1.00;1.00;;;;;13.62;72.16;102233.47;5081796;28;46193;-90
2023/10/04 03:35:26;;;;;;;;;4.33;2.00;;;;;13.63;72.51;102240.56;5083451;27;45467;-89
2023/10/04 03:38:02;;;;;;;;;3.33;2.00;;;;;13.25;72.38;102186.91;5081801;28;45461;-87
2023/10/04 03:40:34;;;;;;;;;4.00;2.00;;;;;13.38;72.65;102206.84;5082434;27;45558;-87
2023/10/04 03:43:06;;;;;;;;;2.00;2.00;;;;;13.53;72.67;102235.59;5082556;27;48040;-87
2023/10/04 03:45:41;;;;;;;;;3.00;1.33;;;;;13.58;72.71;102238.09;5082032;28;45256;-87
2023/10/04 03:48:15;;;;;;;;;2.00;2.00;;;;;13.60;72.63;102238.03;5083149;27;45248;-87
2023/10/04 03:50:47;;;;;;;;;1.67;1.67;;;;;13.57;72.53;102229.19;5081979;27;45557;-88
2023/10/04 03:53:13;;;;;;;;;1.00;1.00;;;;;13.57;72.78;102231.88;5080902;27;46542;-88
2023/10/04 03:55:38;;;;;;;;;2.00;2.00;;;;;13.63;72.65;102238.75;5081638;27;45447;-83
2023/10/04 03:58:04;;;;;;;;;1.67;1.00;;;;;13.54;72.82;102221.31;5077007;27;57636;-86
2023/10/04 04:00:31;;;;;;;;;1.00;1.00;;;;;13.60;72.80;102222.84;5077099;27;45402;-87
2023/10/04 04:02:56;;;;;;;;;6.00;1.00;;;;;13.55;72.50;102220.38;5086147;27;46168;-83
2023/10/04 04:05:22;;;;;;;;;3.33;0.00;;;;;13.64;72.56;102227.13;5091689;27;45470;-84
2023/10/04 04:07:48;;;;;;;;;2.33;1.00;;;;;13.66;72.47;102235.06;5082534;28;45476;-86
2023/10/04 04:10:15;;;;;;;;;2.67;2.67;;;;;13.64;72.34;102228.94;5082913;27;44930;-82
2023/10/04 04:12:42;;;;;;;;;3.67;2.00;;;;;13.68;72.77;102231.41;5078808;27;46096;-85
2023/10/04 04:15:08;;;;;;;;;2.00;1.00;;;;;13.68;72.97;102233.22;5078442;27;45413;-87
2023/10/04 04:17:35;;;;;;;;;1.00;1.00;;;;;13.65;72.52;102233.34;5077552;27;45480;-87
2023/10/04 04:20:03;;;;;;;;;1.00;1.00;;;;;13.62;72.84;102237.00;5079553;27;45451;-86
2023/10/04 04:22:30;;;;;;;;;3.33;2.00;;;;;13.57;72.56;102221.19;5073859;27;45515;-82
2023/10/04 04:24:55;;;;;;;;;1.00;1.00;;;;;13.57;73.17;102220.31;5078441;28;45460;-85
2023/10/04 04:27:23;;;;;;;;;3.33;1.00;;;;;13.61;73.00;102242.44;5079692;28;65778;-86
2023/10/04 04:29:56;;;;;;;;;5.67;3.00;;;;;13.39;73.63;102226.41;5080179;27;45327;-84
2023/10/04 04:32:26;;;;;;;;;9.00;6.00;;;;;13.38;73.82;102241.56;5080080;27;46409;-85
2023/10/04 04:34:53;;;;;;;;;5.00;4.33;;;;;13.38;73.67;102233.56;5080527;28;45209;-86
2023/10/04 04:37:19;;;;;;;;;6.67;4.67;;;;;13.48;73.87;102256.31;5079645;27;45495;-86
2023/10/04 04:39:44;;;;;;;;;12.00;8.00;;;;;13.43;74.06;102257.44;5081553;27;45476;-87
2023/10/04 04:42:11;;;;;;;;;6.00;6.00;;;;;13.43;73.94;102260.13;5081626;27;45440;-86
2023/10/04 04:44:41;;;;;;;;;1.00;1.00;;;;;13.31;74.73;102239.25;5083877;28;45433;-82
2023/10/04 04:47:10;;;;;;;;;2.00;2.00;;;;;13.38;74.24;102254.06;5080138;27;45277;-85
2023/10/04 04:49:35;;;;;;;;;3.67;2.00;;;;;13.38;74.50;102248.72;5079077;28;45532;-85
2023/10/04 04:52:04;;;;;;;;;2.00;2.00;;;;;13.40;74.31;102253.06;5082095;27;45919;-89
2023/10/04 04:54:29;;;;;;;;;1.00;1.00;;;;;13.42;74.37;102253.91;5081072;27;45412;-85
2023/10/04 04:56:55;;;;;;;;;6.00;4.33;;;;;13.41;74.74;102240.56;5079506;27;45455;-86
2023/10/04 04:59:22;;;;;;;;;4.67;4.00;;;;;13.40;74.90;102242.38;5078531;27;45584;-88
2023/10/04 05:01:50;;;;;;;;;1.00;1.00;;;;;13.38;74.79;102230.88;5080548;28;46091;-85
2023/10/04 05:04:18;;;;;;;;;3.00;2.00;;;;;13.44;74.46;102229.78;5080189;28;45652;-84
2023/10/04 05:06:43;;;;;;;;;4.00;2.00;;;;;13.32;74.91;102209.78;5079873;28;45322;-85
2023/10/04 05:09:10;;;;;;;;;2.00;2.00;;;;;13.48;74.64;102242.94;5078463;27;45606;-86
2023/10/04 05:11:36;;;;;;;;;4.33;3.00;;;;;13.53;74.16;102245.41;5078728;28;45256;-85
2023/10/04 05:14:03;;;;;;;;;6.00;3.00;;;;;13.53;74.41;102234.72;5082056;27;45409;-83
2023/10/04 05:16:30;;;;;;;;;4.00;2.33;;;;;13.46;74.50;102247.50;5081763;27;45423;-85
2023/10/04 05:18:56;;;;;;;;;4.33;2.00;;;;;13.45;74.87;102253.78;5080723;27;45218;-85
2023/10/04 05:21:21;;;;;;;;;3.33;2.00;;;;;13.33;75.02;102226.69;5079950;28;46177;-86
2023/10/04 05:23:46;;;;;;;;;2.67;1.00;;;;;13.46;74.71;102243.94;5081498;27;45443;-83
2023/10/04 05:26:12;;;;;;;;;2.67;2.00;;;;;13.32;74.96;102223.16;5078910;28;45420;-86
2023/10/04 05:28:38;;;;;;;;;4.00;1.67;;;;;13.33;75.19;102226.69;5078485;28;45533;-87
2023/10/04 05:31:04;;;;;;;;;2.00;1.00;;;;;13.45;74.97;102253.78;5076214;27;45471;-86
2023/10/04 05:33:30;;;;;;;;;1.67;1.00;;;;;13.33;75.11;102234.69;5077706;27;45344;-85
2023/10/04 05:35:56;;;;;;;;;2.67;2.67;;;;;13.36;75.07;102239.91;5077581;27;45409;-84
2023/10/04 05:38:23;;;;;;;;;2.00;2.00;;;;;13.46;74.94;102254.63;5077192;28;45504;-85
2023/10/04 05:40:52;;;;;;;;;3.00;3.00;;;;;13.45;75.13;102252.91;5060245;27;45260;-85
2023/10/04 05:43:18;;;;;;;;;5.67;2.67;;;;;13.45;75.43;102252.91;5076279;28;45362;-86
2023/10/04 05:45:47;;;;;;;;;3.00;1.33;;;;;13.45;74.73;102251.09;5075578;28;45404;-86
2023/10/04 05:48:14;;;;;;;;;1.00;1.00;;;;;13.42;75.19;102253.91;5077001;27;45323;-84
2023/10/04 05:50:39;;;;;;;;;3.33;2.00;;;;;13.40;75.39;102245.06;5074805;27;46763;-83
2023/10/04 05:53:09;;;;;;;;;2.33;2.00;;;;;13.39;75.29;102234.44;5056171;28;45687;-80
2023/10/04 05:55:35;;;;;;;;;4.67;1.00;;;;;13.36;75.21;102237.25;5064715;28;45440;-81
2023/10/04 05:58:03;;;;;;;;;4.00;3.00;;;;;13.13;75.73;102203.41;5076357;27;45554;-82
2023/10/04 06:00:28;;;;;;;;;1.00;1.00;;;;;13.35;75.54;102247.06;5075634;27;45372;-82
2023/10/04 06:02:56;;;;;;;;;2.00;2.00;;;;;13.19;75.72;102229.94;5063338;27;45466;-84
2023/10/04 06:05:27;;;;;;;;;2.67;2.67;;;;;13.30;75.77;102253.53;5058438;28;45414;-82
2023/10/04 06:07:54;;;;;;;;;3.00;3.00;;;;;13.28;75.68;102253.56;5056763;28;45312;-81
2023/10/04 06:10:20;;;;;;;;;2.33;2.33;;;;;13.13;75.71;102214.97;5074220;28;45444;-81
2023/10/04 06:12:46;;;;;;;;;5.00;2.00;;;;;13.24;75.67;102225.25;5076322;27;45238;-83
2023/10/04 06:15:16;;;;;;;;;3.00;3.00;;;;;13.34;75.68;102236.44;5076092;27;45420;-82
2023/10/04 06:17:45;;;;;;;;;4.00;3.00;;;;;13.35;75.50;102233.69;5074702;28;45674;-83
2023/10/04 06:20:33;;;;;;;;;4.33;4.00;;;;;13.45;75.38;102243.06;5074538;27;45529;-83
2023/10/04 06:23:00;;;;;;;;;3.67;3.67;;;;;13.64;75.32;102255.66;5073958;28;45511;-83
2023/10/04 06:25:31;;;;;;;;;8.00;5.00;;;;;13.71;74.89;102265.16;5073322;28;45543;-86
2023/10/04 06:27:58;;;;;;;;;3.33;3.33;;;;;13.65;74.99;102241.34;5075988;28;45359;-87
2023/10/04 06:30:28;;;;;;;;;5.00;4.00;;;;;13.71;75.01;102243.78;5061362;28;45397;-86
2023/10/04 06:32:55;;;;;;;;;4.00;4.00;;;;;13.92;74.50;102264.22;5063908;27;45322;-85
2023/10/04 06:35:25;;;;;;;;;3.00;1.67;;;;;13.87;73.77;102244.84;5057326;28;45480;-83
2023/10/04 06:37:59;;;;;;;;;3.67;3.67;;;;;14.08;73.72;102269.81;5054951;28;45568;-82
2023/10/04 06:40:26;;;;;;;;;3.33;3.33;;;;;14.17;72.90;102267.56;5055769;28;45636;-83
2023/10/04 06:42:53;;;;;;;;;5.00;4.00;;;;;14.31;72.97;102260.72;5069287;28;45297;-82
2023/10/04 06:45:26;;;;;;;;;5.33;3.00;;;;;14.48;72.25;102262.69;5072604;27;45367;-81
2023/10/04 06:47:53;;;;;;;;;3.33;3.33;;;;;14.57;71.71;102265.78;5062724;27;45535;-81
2023/10/04 06:50:28;;;;;;;;;3.67;3.67;;;;;14.64;71.54;102269.94;5063459;28;45459;-81
2023/10/04 06:52:56;;;;;;;;;5.00;3.67;;;;;14.73;70.80;102276.69;5055032;27;45433;-82
2023/10/04 06:55:22;;;;;;;;;5.00;3.00;;;;;14.78;70.51;102273.78;5067112;27;45461;-81
2023/10/04 06:57:47;;;;;;;;;3.33;3.00;;;;;14.80;70.59;102269.22;5055290;28;45529;-82
2023/10/04 07:00:21;;;;;;;;;7.33;5.00;;;;;14.89;70.79;102287.53;5068356;27;45487;-83
2023/10/04 07:02:59;;;;;;;;;3.67;3.00;;;;;14.84;70.12;102268.13;5068075;28;45533;-81
2023/10/04 07:05:38;;;;;;;;;6.00;4.00;;;;;14.98;69.88;102263.00;5058731;28;45450;-83
2023/10/04 07:08:05;;;;;;;;;4.00;2.67;;;;;14.93;69.16;102248.94;5065879;27;45458;-82
2023/10/04 07:10:31;;;;;;;;;3.00;3.00;;;;;14.97;68.80;102239.81;5059751;28;45674;-83
2023/10/04 07:12:58;;;;;;;;;5.00;3.00;;;;;15.25;68.79;102275.06;5074247;28;45410;-82
2023/10/04 07:15:28;;;;;;;;;2.33;2.33;;;;;15.97;66.86;102292.06;5078660;28;45424;-82
2023/10/04 07:17:53;;;;;;;;;4.33;4.33;;;;;15.98;66.36;102280.38;5077811;28;45673;-83
2023/10/04 07:20:19;;;;;;;;;5.67;5.67;;;;;15.95;66.25;102284.09;5081018;28;45710;-83
2023/10/04 07:22:58;;;;;;;;;5.00;3.00;;;;;15.78;66.06;102271.53;5077735;28;45446;-83
2023/10/04 07:25:29;;;;;;;;;6.67;4.00;;;;;15.83;66.16;102290.94;5083558;27;45441;-83
2023/10/04 07:27:57;;;;;;;;;4.33;2.67;;;;;15.78;66.51;102287.66;5074026;28;45436;-82
2023/10/04 07:30:25;;;;;;;;;6.00;3.33;;;;;15.96;66.29;102290.31;5071367;27;46133;-81
2023/10/04 07:32:51;;;;;;;;;4.00;3.67;;;;;16.08;65.86;102303.09;5077806;27;45376;-84
2023/10/04 07:35:24;;;;;;;;;8.33;6.00;;;;;16.12;66.05;102304.66;5076464;27;45415;-83
2023/10/04 07:37:50;;;;;;;;;10.00;3.67;;;;;16.10;65.44;102307.44;5076948;27;45436;-83
2023/10/04 07:40:16;;;;;;;;;8.67;8.00;;;;;16.09;65.57;102312.88;5062653;27;47761;-83
2023/10/04 07:42:47;;;;;;;;;5.00;3.33;;;;;16.16;65.44;102317.00;5061551;28;45579;-84
2023/10/04 07:45:13;;;;;;;;;7.67;5.00;;;;;16.18;65.28;102323.16;5055221;28;45464;-84
2023/10/04 07:47:43;;;;;;;;;9.00;8.00;;;;;16.23;64.75;102315.72;5063632;28;45909;-82
2023/10/04 07:50:11;;;;;;;;;7.67;6.00;;;;;16.17;65.25;102310.69;5075895;27;46182;-83
2023/10/04 07:52:41;;;;;;;;;5.00;4.33;;;;;16.30;65.10;102322.50;5074913;27;45454;-84
2023/10/04 07:55:29;;;;;;;;;4.00;4.00;;;;;16.37;64.66;102333.78;5056689;28;45650;-84
2023/10/04 07:58:02;;;;;;;;;7.00;4.33;;;;;16.44;64.40;102336.09;5068221;27;45588;-81
2023/10/04 08:00:29;;;;;;;;;7.00;5.00;;;;;16.42;64.22;102332.63;5073600;28;46658;-85
2023/10/04 08:02:55;;;;;;;;;6.33;6.33;;;;;16.40;64.65;102329.09;5076543;28;45452;-85
2023/10/04 08:05:26;;;;;;;;;7.00;5.00;;;;;16.46;64.49;102342.22;5064333;28;45377;-82
2023/10/04 08:07:56;;;;;;;;;8.67;4.00;;;;;16.50;63.67;102343.78;5070174;27;45449;-84
2023/10/04 08:10:25;;;;;;;;;5.33;4.00;;;;;16.25;63.81;102292.34;5068845;27;45471;-84
2023/10/04 08:12:52;;;;;;;;;3.00;3.00;;;;;16.60;63.79;102341.50;5072019;27;45468;-82
2023/10/04 08:15:19;;;;;;;;;2.33;2.33;;;;;16.70;63.18;102337.41;5076115;27;45366;-83
2023/10/04 08:17:49;;;;;;;;;12.00;7.00;;;;;16.75;62.51;102339.84;5068114;28;45554;-83
2023/10/04 08:20:15;;;;;;;;;6.00;6.00;;;;;16.81;62.84;102339.50;5066485;27;45947;-83
2023/10/04 08:22:41;;;;;;;;;6.33;3.00;;;;;16.77;62.42;102329.88;5060127;27;45523;-81
2023/10/04 08:25:10;;;;;;;;;4.33;4.33;;;;;16.87;62.08;102339.16;5064512;28;45378;-80
2023/10/04 08:27:35;;;;;;;;;2.33;1.00;;;;;16.95;62.03;102336.94;5060978;28;45486;-82
2023/10/04 08:30:05;;;;;;;;;4.00;4.00;;;;;16.88;61.44;102314.03;5073268;27;45519;-82
2023/10/04 08:32:31;;;;;;;;;4.00;4.00;;;;;16.88;61.46;102297.03;5059142;27;45504;-80
2023/10/04 08:34:58;;;;;;;;;4.00;4.00;;;;;16.98;61.40;102303.63;5066463;28;45509;-81
2023/10/04 08:37:24;;;;;;;;;7.00;6.00;;;;;17.02;61.11;102302.50;5073793;28;45455;-82
2023/10/04 08:39:49;;;;;;;;;6.00;5.00;;;;;17.22;60.97;102322.91;5077996;28;45432;-81
2023/10/04 08:42:14;;;;;;;;;7.00;6.00;;;;;17.25;60.80;102326.28;5063823;28;60156;-81
2023/10/04 08:44:40;;;;;;;;;3.67;3.67;;;;;17.23;60.74;102311.19;5057650;28;45346;-81
2023/10/04 08:47:08;;;;;;;;;4.00;4.00;;;;;17.20;59.95;102289.88;5065484;28;45453;-83
2023/10/04 08:49:57;;;;;;;;;6.00;3.00;;;;;17.38;59.34;102319.25;5068070;28;45477;-84
2023/10/04 08:52:42;;;;;;;;;6.67;3.00;;;;;17.53;59.28;102333.63;5068950;28;45406;-82
2023/10/04 08:55:13;;;;;;;;;3.00;3.00;;;;;17.56;59.50;102328.06;5071767;28;46855;-84
2023/10/04 08:57:40;;;;;;;;;10.67;4.00;;;;;17.57;59.00;102321.72;5058435;27;45412;-83
2023/10/04 09:00:13;;;;;;;;;5.67;3.00;;;;;17.71;59.23;102337.13;5060910;28;45462;-81
2023/10/04 09:02:50;;;;;;;;;5.00;4.67;;;;;17.71;58.96;102323.69;5065345;28;45661;-82
2023/10/04 09:05:17;;;;;;;;;3.00;3.00;;;;;17.86;58.61;102335.38;5071912;28;45678;-84
2023/10/04 09:07:43;;;;;;;;;4.67;4.67;;;;;17.94;58.00;102342.00;5064581;28;45415;-83
2023/10/04 09:10:17;;;;;;;;;5.33;4.00;;;;;18.04;57.92;102349.56;5064088;28;46021;-83
2023/10/04 09:12:43;;;;;;;;;5.33;5.33;;;;;18.08;58.06;102341.19;5076574;28;45528;-85
2023/10/04 09:15:10;;;;;;;;;5.00;5.00;;;;;18.04;57.82;102320.81;5078613;28;45356;-83
2023/10/04 09:17:47;;;;;;;;;6.33;5.00;;;;;18.12;57.91;102331.13;5067964;27;45437;-82
2023/10/04 09:20:17;;;;;;;;;7.00;6.00;;;;;18.13;57.46;102314.88;5071055;28;47287;-82
2023/10/04 09:22:43;;;;;;;;;5.33;4.33;;;;;18.22;57.17;102327.75;5070385;27;45461;-81
2023/10/04 09:25:10;;;;;;;;;5.33;4.33;;;;;18.08;57.29;102303.50;5058138;28;45426;-82
2023/10/04 09:27:37;;;;;;;;;6.00;4.00;;;;;18.33;56.71;102324.41;5068090;28;45519;-82
2023/10/04 09:30:20;;;;;;;;;9.67;5.00;;;;;18.38;56.76;102318.75;5057521;28;45627;-82
2023/10/04 09:32:46;;;;;;;;;7.00;7.00;;;;;18.58;56.19;102335.41;5069819;28;45392;-83
2023/10/04 09:35:12;;;;;;;;;6.33;5.00;;;;;18.56;56.23;102336.47;5066315;28;45932;-81
2023/10/04 09:37:39;;;;;;;;;7.33;6.00;;;;;18.55;56.10;102321.28;5076910;28;48982;-80
2023/10/04 09:40:12;;;;;;;;;8.00;6.00;;;;;18.75;55.92;102326.31;5076694;28;45369;-81
2023/10/04 09:42:51;;;;;;;;;7.67;4.33;;;;;18.42;55.66;102278.06;5074595;28;45475;-83
2023/10/04 09:45:20;;;;;;;;;5.00;4.00;;;;;18.58;55.79;102299.53;5071254;28;45484;-85
2023/10/04 09:47:46;;;;;;;;;5.00;4.00;;;;;18.68;55.50;102302.53;5058033;28;45349;-84
2023/10/04 09:50:20;;;;;;;;;7.00;4.00;;;;;18.71;55.68;102305.03;5056837;28;45873;-84
2023/10/04 09:52:45;;;;;;;;;4.67;4.67;;;;;18.77;55.61;102296.59;5072029;28;45371;-84
2023/10/04 09:55:13;;;;;;;;;12.33;3.00;;;;;18.93;54.74;102305.41;5068761;28;45784;-84
2023/10/04 09:57:42;;;;;;;;;1.67;1.00;;;;;18.81;54.78;102272.00;5067151;27;45438;-85
2023/10/04 10:00:17;;;;;;;;;5.33;3.00;;;;;19.08;54.61;102306.25;5055292;28;46136;-84
2023/10/04 10:02:46;;;;;;;;;2.67;2.33;;;;;18.91;53.69;102287.59;5056152;28;45492;-82
2023/10/04 10:05:19;;;;;;;;;3.00;3.00;;;;;19.19;53.77;102325.31;5055714;28;45426;-83
2023/10/04 10:07:48;;;;;;;;;4.67;3.33;;;;;19.30;52.69;102321.91;5065757;28;45540;-84
2023/10/04 10:10:16;;;;;;;;;3.00;2.00;;;;;19.15;52.76;102291.41;5052140;28;45516;-84
2023/10/04 10:12:43;;;;;;;;;8.00;4.00;;;;;19.11;52.75;102279.09;5069867;28;45664;-82
2023/10/04 10:15:11;;;;;;;;;8.33;5.33;;;;;19.33;52.41;102295.59;5054665;28;45472;-83
2023/10/04 10:17:38;;;;;;;;;4.33;3.00;;;;;19.32;51.92;102299.25;5063272;28;45439;-83
2023/10/04 10:20:05;;;;;;;;;6.00;4.67;;;;;19.51;52.77;102296.19;5062289;28;45762;-84
2023/10/04 10:22:32;;;;;;;;;5.00;3.67;;;;;19.65;51.89;102293.47;5069107;28;45609;-85
2023/10/04 10:24:57;;;;;;;;;9.33;6.67;;;;;19.84;52.08;102295.81;5071026;28;45404;-83
2023/10/04 10:27:25;;;;;;;;;9.00;5.67;;;;;19.92;51.18;102282.66;5060745;28;45502;-83
2023/10/04 10:29:52;;;;;;;;;4.00;4.00;;;;;20.06;50.58;102289.81;5060557;27;48107;-82
2023/10/04 10:32:22;;;;;;;;;7.67;3.00;;;;;20.24;50.00;102298.47;5085453;27;45479;-85
2023/10/04 10:34:50;;;;;;;;;3.33;1.67;;;;;20.18;49.20;102263.75;5071381;28;45466;-83
2023/10/04 10:37:22;;;;;;;;;5.00;3.00;;;;;20.51;48.71;102299.25;5061855;28;45487;-84
2023/10/04 10:39:56;;;;;;;;;6.33;3.33;;;;;20.66;48.30;102300.00;5076935;28;46895;-83
2023/10/04 10:42:22;;;;;;;;;6.00;6.00;;;;;20.58;48.50;102287.03;5071723;27;45567;-84
2023/10/04 10:44:50;;;;;;;;;6.00;4.67;;;;;20.86;48.12;102293.16;5064650;27;45772;-85
2023/10/04 10:47:25;;;;;;;;;3.00;3.00;;;;;21.06;48.10;102294.41;5074823;27;45512;-85
2023/10/04 10:49:52;;;;;;;;;9.00;7.33;;;;;21.19;47.15;102281.69;5076370;28;46605;-86
2023/10/04 10:52:41;;;;;;;;;5.33;4.00;;;;;21.21;47.07;102274.31;5070200;27;45441;-86
2023/10/04 10:55:14;;;;;;;;;7.00;3.00;;;;;21.27;46.86;102278.47;5061160;28;45360;-82
2023/10/04 10:57:43;;;;;;;;;3.33;2.33;;;;;21.22;46.62;102273.34;5066854;28;45568;-83
2023/10/04 11:02:44;;;;;;;;;3.00;2.33;;;;;21.24;46.14;102284.06;5074367;28;45402;-83
2023/10/04 11:05:12;;;;;;;;;5.33;5.00;;;;;21.39;45.76;102280.25;5058809;28;45405;-82
2023/10/04 11:07:38;;;;;;;;;3.33;3.00;;;;;21.60;45.54;102289.44;5058139;28;45593;-82
2023/10/04 11:10:05;;;;;;;;;4.00;4.00;;;;;21.82;45.18;102267.00;5057484;28;46665;-80
2023/10/04 11:12:37;;;;;;;;;4.67;4.67;;;;;22.17;44.69;102264.31;5061714;28;45713;-81
2023/10/04 11:15:03;;;;;;;;;4.33;2.67;;;;;22.38;43.40;102250.88;5057484;28;45495;-84
2023/10/04 11:17:30;;;;;;;;;3.33;1.67;;;;;22.37;43.27;102228.34;5067607;28;45799;-81
2023/10/04 11:19:55;;;;;;;;;3.33;2.67;;;;;22.42;43.68;102249.69;5071260;28;46232;-83
2023/10/04 11:22:21;;;;;;;;;3.67;3.00;;;;;22.36;42.68;102256.44;5078123;27;45428;-82
2023/10/04 11:24:46;;;;;;;;;2.00;2.00;;;;;22.35;43.47;102235.75;5078697;27;45560;-84
2023/10/04 11:27:21;;;;;;;;;5.00;3.33;;;;;22.44;41.80;102238.72;5078524;27;45404;-84
2023/10/04 11:29:49;;;;;;;;;1.00;1.00;;;;;22.51;43.23;102234.50;5079060;27;46600;-84
2023/10/04 11:32:14;;;;;;;;;3.25;3.00;;;;;22.45;42.68;102240.44;5063240;27;45324;-82
2023/10/04 11:34:43;;;;;;;;;5.67;3.00;;;;;22.75;42.68;102253.34;5073755;28;45452;-83